PWSweather.com
Personal Weather Stations
Station Observations
AC5JC
Greenleaf Peninsula, Waco, Waco, TX 76710

Greenleaf Peninsula, WacoWaco, TX 76710

Lat: 31.565, Lon: -97.198

Elevation: 570

Station Type: Ambient WS-1400IP

http://ac5jc.dyndns.org

High Low Average
Temperature 82.8°F28.2°C 59.5°F15.3°C 71.1°F21.7°C
Dew Point 60.8°F16.0°C 49.4°F9.7°C 55.1°F12.8°C
Winds 17.9 mph 28.8 kmh 3.2 mph 5.1 kmh 8.0 mph S12.9 kmh S
Wind Gusts 32.4 mph52.1 kmh 4.9 mph7.9 kmh 16.0 mph25.7 kmh
Humidity 92% 33% 61%
Pressure 29.41 in995.9 mb 29.18 in988.1 mb -
Precipitation 0.00 in0.0 mm - -
Hour Temp Dew Point Humidity Winds Wind Gusts Pressure Precip Precip Rate Daily Precip Total
12:00 AM 66.3°F19.1°C 52.9°F11.6°C 62% 12.7 mph SSE20.4 kmh SSE 19.9 mph32.0 kmh 29.41 in995.9 mb 0.00 in0.0 mm 0.00 in0.0 mm 0.00 in0.0 mm
12:05 AM 66.1°F18.9°C 52.7°F11.5°C 62% 6.2 mph S10.0 kmh S 22.4 mph36.0 kmh 29.41 in995.9 mb 0.00 in0.0 mm 0.00 in0.0 mm 0.00 in0.0 mm
12:10 AM 66.0°F18.9°C 52.6°F11.4°C 62% 9.7 mph S15.6 kmh S 15.0 mph24.1 kmh 29.41 in995.9 mb 0.00 in0.0 mm 0.00 in0.0 mm 0.00 in0.0 mm
12:15 AM 65.8°F18.8°C 52.4°F11.3°C 62% 9.7 mph S15.6 kmh S 24.8 mph39.9 kmh 29.41 in995.9 mb 0.00 in0.0 mm 0.00 in0.0 mm 0.00 in0.0 mm
12:20 AM 65.7°F18.7°C 52.3°F11.3°C 62% 11.0 mph SSE17.7 kmh SSE 17.4 mph28.0 kmh 29.42 in996.3 mb 0.00 in0.0 mm 0.00 in0.0 mm 0.00 in0.0 mm
12:25 AM 65.5°F18.6°C 52.1°F11.2°C 62% 12.5 mph SE20.1 kmh SE 27.5 mph44.3 kmh 29.42 in996.3 mb 0.00 in0.0 mm 0.00 in0.0 mm 0.00 in0.0 mm
12:30 AM 65.4°F18.6°C 52.1°F11.2°C 62% 6.9 mph SSE11.1 kmh SSE 15.0 mph24.1 kmh 29.42 in996.3 mb 0.00 in0.0 mm 0.00 in0.0 mm 0.00 in0.0 mm
12:35 AM 65.3°F18.5°C 52.3°F11.3°C 63% 7.1 mph SSE11.4 kmh SSE 12.3 mph19.8 kmh 29.42 in996.3 mb 0.00 in0.0 mm 0.00 in0.0 mm 0.00 in0.0 mm
12:40 AM 65.1°F18.4°C 52.2°F11.2°C 63% 10.7 mph SSE17.2 kmh SSE 30.0 mph48.3 kmh 29.42 in996.3 mb 0.00 in0.0 mm 0.00 in0.0 mm 0.00 in0.0 mm
12:45 AM 64.9°F18.3°C 52.0°F11.1°C 63% 10.2 mph S16.4 kmh S 17.4 mph28.0 kmh 29.41 in995.9 mb 0.00 in0.0 mm 0.00 in0.0 mm 0.00 in0.0 mm
12:50 AM 64.8°F18.2°C 52.3°F11.3°C 64% 9.7 mph S15.6 kmh S 17.4 mph28.0 kmh 29.41 in995.9 mb 0.00 in0.0 mm 0.00 in0.0 mm 0.00 in0.0 mm
12:55 AM 64.6°F18.1°C 52.2°F11.2°C 64% 8.0 mph S12.9 kmh S 19.9 mph32.0 kmh 29.41 in995.9 mb 0.00 in0.0 mm 0.00 in0.0 mm 0.00 in0.0 mm
01:00 AM 64.4°F18.0°C 52.3°F11.3°C 65% 6.0 mph SSE9.7 kmh SSE 12.3 mph19.8 kmh 29.41 in995.9 mb 0.00 in0.0 mm 0.00 in0.0 mm 0.00 in0.0 mm
01:05 AM 64.2°F17.9°C 52.6°F11.4°C 66% 8.4 mph S13.5 kmh S 15.0 mph24.1 kmh 29.41 in995.9 mb 0.00 in0.0 mm 0.00 in0.0 mm 0.00 in0.0 mm
01:10 AM 64.0°F17.8°C 52.5°F11.4°C 66% 7.4 mph S11.9 kmh S 15.0 mph24.1 kmh 29.41 in995.9 mb 0.00 in0.0 mm 0.00 in0.0 mm 0.00 in0.0 mm
01:15 AM 63.9°F17.7°C 52.7°F11.5°C 67% 7.5 mph S12.1 kmh S 12.3 mph19.8 kmh 29.40 in995.6 mb 0.00 in0.0 mm 0.00 in0.0 mm 0.00 in0.0 mm
01:20 AM 63.8°F17.7°C 52.8°F11.6°C 68% 11.2 mph S18.0 kmh S 19.9 mph32.0 kmh 29.40 in995.6 mb 0.00 in0.0 mm 0.00 in0.0 mm 0.00 in0.0 mm
01:25 AM 63.6°F17.6°C 52.8°F11.6°C 68% 8.9 mph SE14.3 kmh SE 15.0 mph24.1 kmh 29.39 in995.3 mb 0.00 in0.0 mm 0.00 in0.0 mm 0.00 in0.0 mm
01:30 AM 63.4°F17.4°C 52.6°F11.4°C 68% 10.6 mph SSE17.1 kmh SSE 24.8 mph39.9 kmh 29.39 in995.3 mb 0.00 in0.0 mm 0.00 in0.0 mm 0.00 in0.0 mm
01:35 AM 63.2°F17.3°C 52.5°F11.4°C 68% 7.0 mph S11.3 kmh S 17.4 mph28.0 kmh 29.39 in995.3 mb 0.00 in0.0 mm 0.00 in0.0 mm 0.00 in0.0 mm
01:40 AM 63.1°F17.3°C 52.7°F11.5°C 69% 5.2 mph S8.4 kmh S 12.3 mph19.8 kmh 29.40 in995.6 mb 0.00 in0.0 mm 0.00 in0.0 mm 0.00 in0.0 mm
01:45 AM 63.0°F17.2°C 53.0°F11.7°C 70% 6.7 mph S10.8 kmh S 15.0 mph24.1 kmh 29.39 in995.3 mb 0.00 in0.0 mm 0.00 in0.0 mm 0.00 in0.0 mm
01:50 AM 62.8°F17.1°C 53.0°F11.7°C 70% 7.2 mph S11.6 kmh S 12.3 mph19.8 kmh 29.39 in995.3 mb 0.00 in0.0 mm 0.00 in0.0 mm 0.00 in0.0 mm
01:55 AM 62.6°F17.0°C 53.0°F11.7°C 71% 7.6 mph S12.2 kmh S 17.4 mph28.0 kmh 29.39 in995.3 mb 0.00 in0.0 mm 0.00 in0.0 mm 0.00 in0.0 mm
02:00 AM 62.4°F16.9°C 52.9°F11.6°C 71% 5.1 mph S8.2 kmh S 12.3 mph19.8 kmh 29.39 in995.3 mb 0.00 in0.0 mm 0.00 in0.0 mm 0.00 in0.0 mm
02:05 AM 62.3°F16.8°C 53.0°F11.7°C 72% 5.6 mph S9.0 kmh S 9.8 mph15.8 kmh 29.39 in995.3 mb 0.00 in0.0 mm 0.00 in0.0 mm 0.00 in0.0 mm
02:10 AM 62.2°F16.8°C 53.1°F11.7°C 72% 7.0 mph SSE11.3 kmh SSE 17.4 mph28.0 kmh 29.39 in995.3 mb 0.00 in0.0 mm 0.00 in0.0 mm 0.00 in0.0 mm
02:15 AM 62.1°F16.7°C 53.0°F11.7°C 72% 5.7 mph S9.2 kmh S 12.3 mph19.8 kmh 29.40 in995.6 mb 0.00 in0.0 mm 0.00 in0.0 mm 0.00 in0.0 mm
02:20 AM 62.1°F16.7°C 53.3°F11.8°C 73% 4.3 mph S6.9 kmh S 9.8 mph15.8 kmh 29.40 in995.6 mb 0.00 in0.0 mm 0.00 in0.0 mm 0.00 in0.0 mm
02:25 AM 62.0°F16.7°C 53.3°F11.8°C 73% 5.7 mph S9.2 kmh S 12.3 mph19.8 kmh 29.40 in995.6 mb 0.00 in0.0 mm 0.00 in0.0 mm 0.00 in0.0 mm
02:30 AM 61.9°F16.6°C 53.5°F11.9°C 74% 5.1 mph S8.2 kmh S 12.3 mph19.8 kmh 29.40 in995.6 mb 0.00 in0.0 mm 0.00 in0.0 mm 0.00 in0.0 mm
02:35 AM 61.7°F16.5°C 53.3°F11.8°C 74% 6.8 mph SSE10.9 kmh SSE 12.3 mph19.8 kmh 29.39 in995.3 mb 0.00 in0.0 mm 0.00 in0.0 mm 0.00 in0.0 mm
02:40 AM 61.7°F16.5°C 53.4°F11.9°C 74% 5.2 mph S8.4 kmh S 12.3 mph19.8 kmh 29.39 in995.3 mb 0.00 in0.0 mm 0.00 in0.0 mm 0.00 in0.0 mm
02:45 AM 61.5°F16.4°C 53.5°F11.9°C 75% 5.0 mph S8.0 kmh S 9.8 mph15.8 kmh 29.39 in995.3 mb 0.00 in0.0 mm 0.00 in0.0 mm 0.00 in0.0 mm
02:50 AM 61.4°F16.3°C 53.4°F11.9°C 75% 8.2 mph S13.2 kmh S 12.3 mph19.8 kmh 29.39 in995.3 mb 0.00 in0.0 mm 0.00 in0.0 mm 0.00 in0.0 mm
02:55 AM 61.3°F16.3°C 53.4°F11.9°C 75% 5.2 mph S8.4 kmh S 9.8 mph15.8 kmh 29.39 in995.3 mb 0.00 in0.0 mm 0.00 in0.0 mm 0.00 in0.0 mm
03:00 AM 61.3°F16.3°C 53.6°F12.0°C 76% 4.5 mph SSW7.2 kmh SSW 9.8 mph15.8 kmh 29.39 in995.3 mb 0.00 in0.0 mm 0.00 in0.0 mm 0.00 in0.0 mm
03:05 AM 61.2°F16.2°C 53.8°F12.1°C 77% 3.2 mph S5.1 kmh S 9.8 mph15.8 kmh 29.39 in995.3 mb 0.00 in0.0 mm 0.00 in0.0 mm 0.00 in0.0 mm
03:10 AM 61.1°F16.2°C 54.1°F12.3°C 78% 3.5 mph SSE5.6 kmh SSE 12.3 mph19.8 kmh 29.39 in995.3 mb 0.00 in0.0 mm 0.00 in0.0 mm 0.00 in0.0 mm
03:15 AM 60.9°F16.1°C 54.4°F12.4°C 79% 8.8 mph SSE14.2 kmh SSE 15.0 mph24.1 kmh 29.39 in995.3 mb 0.00 in0.0 mm 0.00 in0.0 mm 0.00 in0.0 mm
03:20 AM 60.8°F16.0°C 54.2°F12.3°C 79% 4.8 mph S7.7 kmh S 12.3 mph19.8 kmh 29.39 in995.3 mb 0.00 in0.0 mm 0.00 in0.0 mm 0.00 in0.0 mm
03:25 AM 60.6°F15.9°C 54.1°F12.3°C 79% 4.9 mph S7.9 kmh S 9.8 mph15.8 kmh 29.38 in994.9 mb 0.00 in0.0 mm 0.00 in0.0 mm 0.00 in0.0 mm
03:30 AM 60.6°F15.9°C 54.4°F12.4°C 80% 6.8 mph SE10.9 kmh SE 12.3 mph19.8 kmh 29.38 in994.9 mb 0.00 in0.0 mm 0.00 in0.0 mm 0.00 in0.0 mm
03:35 AM 60.4°F15.8°C 54.3°F12.4°C 80% 3.2 mph S5.1 kmh S 7.4 mph11.9 kmh 29.38 in994.9 mb 0.00 in0.0 mm 0.00 in0.0 mm 0.00 in0.0 mm
03:40 AM 60.4°F15.8°C 54.5°F12.5°C 81% 3.4 mph SSE5.5 kmh SSE 9.8 mph15.8 kmh 29.38 in994.9 mb 0.00 in0.0 mm 0.00 in0.0 mm 0.00 in0.0 mm
03:45 AM 60.3°F15.7°C 54.4°F12.4°C 81% 4.0 mph S6.4 kmh S 9.8 mph15.8 kmh 29.38 in994.9 mb 0.00 in0.0 mm 0.00 in0.0 mm 0.00 in0.0 mm
03:50 AM 60.2°F15.7°C 54.7°F12.6°C 82% 5.0 mph S8.0 kmh S 9.8 mph15.8 kmh 29.38 in994.9 mb 0.00 in0.0 mm 0.00 in0.0 mm 0.00 in0.0 mm
03:55 AM 60.1°F15.6°C 54.6°F12.6°C 82% 6.7 mph S10.8 kmh S 15.0 mph24.1 kmh 29.37 in994.6 mb 0.00 in0.0 mm 0.00 in0.0 mm 0.00 in0.0 mm
04:00 AM 60.1°F15.6°C 54.6°F12.6°C 82% 3.7 mph S6.0 kmh S 12.3 mph19.8 kmh 29.37 in994.6 mb 0.00 in0.0 mm 0.00 in0.0 mm 0.00 in0.0 mm
04:05 AM 60.1°F15.6°C 54.6°F12.6°C 82% 6.8 mph S10.9 kmh S 12.3 mph19.8 kmh 29.37 in994.6 mb 0.00 in0.0 mm 0.00 in0.0 mm 0.00 in0.0 mm
04:10 AM 60.1°F15.6°C 54.8°F12.7°C 82% 4.8 mph S7.7 kmh S 9.8 mph15.8 kmh 29.37 in994.6 mb 0.00 in0.0 mm 0.00 in0.0 mm 0.00 in0.0 mm
04:15 AM 60.3°F15.7°C 55.1°F12.8°C 83% 5.1 mph SSW8.2 kmh SSW 15.0 mph24.1 kmh 29.36 in994.2 mb 0.00 in0.0 mm 0.00 in0.0 mm 0.00 in0.0 mm
04:20 AM 60.3°F15.7°C 55.1°F12.8°C 83% 6.2 mph S10.0 kmh S 12.3 mph19.8 kmh 29.36 in994.2 mb 0.00 in0.0 mm 0.00 in0.0 mm 0.00 in0.0 mm
04:25 AM 60.3°F15.7°C 55.4°F13.0°C 84% 5.5 mph SSE8.9 kmh SSE 12.3 mph19.8 kmh 29.36 in994.2 mb 0.00 in0.0 mm 0.00 in0.0 mm 0.00 in0.0 mm
04:30 AM 60.3°F15.7°C 55.4°F13.0°C 84% 5.8 mph S9.3 kmh S 12.3 mph19.8 kmh 29.36 in994.2 mb 0.00 in0.0 mm 0.00 in0.0 mm 0.00 in0.0 mm
04:35 AM 60.1°F15.6°C 55.4°F13.0°C 85% 5.1 mph SSE8.2 kmh SSE 12.3 mph19.8 kmh 29.36 in994.2 mb 0.00 in0.0 mm 0.00 in0.0 mm 0.00 in0.0 mm
04:40 AM 60.1°F15.6°C 55.5°F13.1°C 85% 5.8 mph S9.3 kmh S 9.8 mph15.8 kmh 29.36 in994.2 mb 0.00 in0.0 mm 0.00 in0.0 mm 0.00 in0.0 mm
04:45 AM 59.9°F15.5°C 55.7°F13.2°C 86% 4.8 mph S7.7 kmh S 9.8 mph15.8 kmh 29.36 in994.2 mb 0.00 in0.0 mm 0.00 in0.0 mm 0.00 in0.0 mm
04:50 AM 59.8°F15.4°C 55.7°F13.2°C 86% 4.3 mph S6.9 kmh S 7.4 mph11.9 kmh 29.36 in994.2 mb 0.00 in0.0 mm 0.00 in0.0 mm 0.00 in0.0 mm
04:55 AM 59.7°F15.4°C 55.8°F13.2°C 87% 5.5 mph SSE8.9 kmh SSE 12.3 mph19.8 kmh 29.36 in994.2 mb 0.00 in0.0 mm 0.00 in0.0 mm 0.00 in0.0 mm
05:00 AM 59.7°F15.4°C 55.9°F13.3°C 87% 3.5 mph S5.6 kmh S 4.9 mph7.9 kmh 29.36 in994.2 mb 0.00 in0.0 mm 0.00 in0.0 mm 0.00 in0.0 mm
05:05 AM 59.7°F15.4°C 56.1°F13.4°C 88% 5.8 mph S9.3 kmh S 15.0 mph24.1 kmh 29.36 in994.2 mb 0.00 in0.0 mm 0.00 in0.0 mm 0.00 in0.0 mm
05:10 AM 59.7°F15.4°C 56.2°F13.4°C 88% 4.5 mph S7.2 kmh S 12.3 mph19.8 kmh 29.36 in994.2 mb 0.00 in0.0 mm 0.00 in0.0 mm 0.00 in0.0 mm
05:15 AM 59.8°F15.4°C 56.5°F13.6°C 89% 4.0 mph S6.4 kmh S 7.4 mph11.9 kmh 29.36 in994.2 mb 0.00 in0.0 mm 0.00 in0.0 mm 0.00 in0.0 mm
05:20 AM 59.9°F15.5°C 56.6°F13.7°C 89% 8.5 mph SSE13.7 kmh SSE 15.0 mph24.1 kmh 29.36 in994.2 mb 0.00 in0.0 mm 0.00 in0.0 mm 0.00 in0.0 mm
05:25 AM 60.0°F15.6°C 56.8°F13.8°C 89% 5.4 mph SSE8.7 kmh SSE 9.8 mph15.8 kmh 29.36 in994.2 mb 0.00 in0.0 mm 0.00 in0.0 mm 0.00 in0.0 mm
05:30 AM 60.1°F15.6°C 56.8°F13.8°C 89% 4.2 mph S6.8 kmh S 9.8 mph15.8 kmh 29.36 in994.2 mb 0.00 in0.0 mm 0.00 in0.0 mm 0.00 in0.0 mm
05:35 AM 60.1°F15.6°C 56.9°F13.8°C 89% 6.5 mph S10.5 kmh S 12.3 mph19.8 kmh 29.36 in994.2 mb 0.00 in0.0 mm 0.00 in0.0 mm 0.00 in0.0 mm
05:40 AM 60.3°F15.7°C 57.1°F13.9°C 89% 5.0 mph S8.0 kmh S 9.8 mph15.8 kmh 29.36 in994.2 mb 0.00 in0.0 mm 0.00 in0.0 mm 0.00 in0.0 mm
05:45 AM 60.1°F15.6°C 57.2°F14.0°C 90% 6.4 mph SSE10.3 kmh SSE 12.3 mph19.8 kmh 29.36 in994.2 mb 0.00 in0.0 mm 0.00 in0.0 mm 0.00 in0.0 mm
05:50 AM 60.1°F15.6°C 57.2°F14.0°C 90% 8.8 mph SE14.2 kmh SE 17.4 mph28.0 kmh 29.36 in994.2 mb 0.00 in0.0 mm 0.00 in0.0 mm 0.00 in0.0 mm
05:55 AM 60.1°F15.6°C 57.2°F14.0°C 90% 4.6 mph SSE7.4 kmh SSE 12.3 mph19.8 kmh 29.36 in994.2 mb 0.00 in0.0 mm 0.00 in0.0 mm 0.00 in0.0 mm
06:00 AM 60.1°F15.6°C 57.2°F14.0°C 90% 8.7 mph SSE14.0 kmh SSE 15.0 mph24.1 kmh 29.36 in994.2 mb 0.00 in0.0 mm 0.00 in0.0 mm 0.00 in0.0 mm
06:05 AM 60.1°F15.6°C 57.2°F14.0°C 90% 7.6 mph SSE12.2 kmh SSE 12.3 mph19.8 kmh 29.35 in993.9 mb 0.00 in0.0 mm 0.00 in0.0 mm 0.00 in0.0 mm
06:10 AM 60.1°F15.6°C 57.2°F14.0°C 90% 5.2 mph SSE8.4 kmh SSE 9.8 mph15.8 kmh 29.36 in994.2 mb 0.00 in0.0 mm 0.00 in0.0 mm 0.00 in0.0 mm
06:15 AM 59.9°F15.5°C 57.2°F14.0°C 91% 7.4 mph S11.9 kmh S 17.4 mph28.0 kmh 29.36 in994.2 mb 0.00 in0.0 mm 0.00 in0.0 mm 0.00 in0.0 mm
06:20 AM 59.9°F15.5°C 57.3°F14.1°C 91% 7.7 mph SSE12.4 kmh SSE 12.3 mph19.8 kmh 29.36 in994.2 mb 0.00 in0.0 mm 0.00 in0.0 mm 0.00 in0.0 mm
06:25 AM 59.7°F15.4°C 57.1°F13.9°C 91% 5.2 mph SSE8.4 kmh SSE 7.4 mph11.9 kmh 29.36 in994.2 mb 0.00 in0.0 mm 0.00 in0.0 mm 0.00 in0.0 mm
06:30 AM 59.7°F15.4°C 57.0°F13.9°C 91% 3.9 mph SE6.3 kmh SE 9.8 mph15.8 kmh 29.36 in994.2 mb 0.00 in0.0 mm 0.00 in0.0 mm 0.00 in0.0 mm
06:35 AM 59.5°F15.3°C 56.9°F13.8°C 91% 5.5 mph SSE8.9 kmh SSE 9.8 mph15.8 kmh 29.35 in993.9 mb 0.00 in0.0 mm 0.00 in0.0 mm 0.00 in0.0 mm
06:40 AM 59.5°F15.3°C 57.1°F13.9°C 92% 7.0 mph SSE11.3 kmh SSE 12.3 mph19.8 kmh 29.35 in993.9 mb 0.00 in0.0 mm 0.00 in0.0 mm 0.00 in0.0 mm
06:45 AM 59.5°F15.3°C 57.2°F14.0°C 92% 6.7 mph S10.8 kmh S 12.3 mph19.8 kmh 29.36 in994.2 mb 0.00 in0.0 mm 0.00 in0.0 mm 0.00 in0.0 mm
06:50 AM 59.5°F15.3°C 57.2°F14.0°C 92% 7.2 mph S11.6 kmh S 15.0 mph24.1 kmh 29.36 in994.2 mb 0.00 in0.0 mm 0.00 in0.0 mm 0.00 in0.0 mm
06:55 AM 59.5°F15.3°C 57.2°F14.0°C 92% 6.7 mph S10.8 kmh S 9.8 mph15.8 kmh 29.36 in994.2 mb 0.00 in0.0 mm 0.00 in0.0 mm 0.00 in0.0 mm
07:00 AM 59.5°F15.3°C 57.2°F14.0°C 92% 4.6 mph S7.4 kmh S 9.8 mph15.8 kmh 29.36 in994.2 mb 0.00 in0.0 mm 0.00 in0.0 mm 0.00 in0.0 mm
07:05 AM 59.7°F15.4°C 57.4°F14.1°C 92% 5.5 mph SE8.9 kmh SE 12.3 mph19.8 kmh 29.36 in994.2 mb 0.00 in0.0 mm 0.00 in0.0 mm 0.00 in0.0 mm
07:10 AM 59.7°F15.4°C 57.4°F14.1°C 92% 5.7 mph SSE9.2 kmh SSE 12.3 mph19.8 kmh 29.36 in994.2 mb 0.00 in0.0 mm 0.00 in0.0 mm 0.00 in0.0 mm
07:15 AM 59.7°F15.4°C 57.4°F14.1°C 92% 7.5 mph SE12.1 kmh SE 12.3 mph19.8 kmh 29.36 in994.2 mb 0.00 in0.0 mm 0.00 in0.0 mm 0.00 in0.0 mm
07:20 AM 59.7°F15.4°C 57.4°F14.1°C 92% 4.2 mph SSE6.8 kmh SSE 7.4 mph11.9 kmh 29.36 in994.2 mb 0.00 in0.0 mm 0.00 in0.0 mm 0.00 in0.0 mm
07:25 AM 59.7°F15.4°C 57.4°F14.1°C 92% 6.4 mph SSE10.3 kmh SSE 12.3 mph19.8 kmh 29.36 in994.2 mb 0.00 in0.0 mm 0.00 in0.0 mm 0.00 in0.0 mm
07:30 AM 59.7°F15.4°C 57.4°F14.1°C 92% 7.4 mph S11.9 kmh S 12.3 mph19.8 kmh 29.36 in994.2 mb 0.00 in0.0 mm 0.00 in0.0 mm 0.00 in0.0 mm
07:35 AM 59.7°F15.4°C 57.4°F14.1°C 92% 6.4 mph SSE10.3 kmh SSE 9.8 mph15.8 kmh 29.36 in994.2 mb 0.00 in0.0 mm 0.00 in0.0 mm 0.00 in0.0 mm
07:40 AM 59.9°F15.5°C 57.6°F14.2°C 92% 7.3 mph SSE11.7 kmh SSE 12.3 mph19.8 kmh 29.36 in994.2 mb 0.00 in0.0 mm 0.00 in0.0 mm 0.00 in0.0 mm
07:45 AM 60.0°F15.6°C 57.2°F14.0°C 90% 7.1 mph S11.4 kmh S 12.3 mph19.8 kmh 29.36 in994.2 mb 0.00 in0.0 mm 0.00 in0.0 mm 0.00 in0.0 mm
07:50 AM 60.2°F15.7°C 57.2°F14.0°C 90% 8.2 mph S13.2 kmh S 19.9 mph32.0 kmh 29.36 in994.2 mb 0.00 in0.0 mm 0.00 in0.0 mm 0.00 in0.0 mm
07:55 AM 60.5°F15.8°C 57.2°F14.0°C 89% 7.4 mph SSE11.9 kmh SSE 12.3 mph19.8 kmh 29.36 in994.2 mb 0.00 in0.0 mm 0.00 in0.0 mm 0.00 in0.0 mm
08:00 AM 60.8°F16.0°C 57.1°F13.9°C 88% 5.5 mph S8.9 kmh S 12.3 mph19.8 kmh 29.35 in993.9 mb 0.00 in0.0 mm 0.00 in0.0 mm 0.00 in0.0 mm
08:05 AM 61.0°F16.1°C 57.1°F13.9°C 87% 6.2 mph S10.0 kmh S 9.8 mph15.8 kmh 29.35 in993.9 mb 0.00 in0.0 mm 0.00 in0.0 mm 0.00 in0.0 mm
08:10 AM 61.3°F16.3°C 57.1°F13.9°C 86% 7.2 mph S11.6 kmh S 12.3 mph19.8 kmh 29.36 in994.2 mb 0.00 in0.0 mm 0.00 in0.0 mm 0.00 in0.0 mm
08:15 AM 61.5°F16.4°C 57.1°F13.9°C 86% 7.2 mph SSE11.6 kmh SSE 19.9 mph32.0 kmh 29.36 in994.2 mb 0.00 in0.0 mm 0.00 in0.0 mm 0.00 in0.0 mm
08:20 AM 61.8°F16.6°C 56.9°F13.8°C 84% 6.3 mph S10.1 kmh S 15.0 mph24.1 kmh 29.36 in994.2 mb 0.00 in0.0 mm 0.00 in0.0 mm 0.00 in0.0 mm
08:25 AM 62.0°F16.7°C 56.7°F13.7°C 83% 4.7 mph SSE7.6 kmh SSE 15.0 mph24.1 kmh 29.36 in994.2 mb 0.00 in0.0 mm 0.00 in0.0 mm 0.00 in0.0 mm
08:30 AM 62.3°F16.8°C 56.5°F13.6°C 82% 6.3 mph SSW10.1 kmh SSW 17.4 mph28.0 kmh 29.36 in994.2 mb 0.00 in0.0 mm 0.00 in0.0 mm 0.00 in0.0 mm
08:35 AM 62.5°F16.9°C 56.5°F13.6°C 81% 6.8 mph S10.9 kmh S 12.3 mph19.8 kmh 29.36 in994.2 mb 0.00 in0.0 mm 0.00 in0.0 mm 0.00 in0.0 mm
08:40 AM 62.7°F17.1°C 56.5°F13.6°C 80% 8.8 mph S14.2 kmh S 19.9 mph32.0 kmh 29.37 in994.6 mb 0.00 in0.0 mm 0.00 in0.0 mm 0.00 in0.0 mm
08:45 AM 63.0°F17.2°C 56.6°F13.7°C 80% 3.5 mph S5.6 kmh S 7.4 mph11.9 kmh 29.36 in994.2 mb 0.00 in0.0 mm 0.00 in0.0 mm 0.00 in0.0 mm
08:50 AM 63.2°F17.3°C 56.5°F13.6°C 79% 6.6 mph SSW10.6 kmh SSW 19.9 mph32.0 kmh 29.36 in994.2 mb 0.00 in0.0 mm 0.00 in0.0 mm 0.00 in0.0 mm
08:55 AM 63.7°F17.6°C 56.4°F13.6°C 77% 6.3 mph S10.1 kmh S 15.0 mph24.1 kmh 29.36 in994.2 mb 0.00 in0.0 mm 0.00 in0.0 mm 0.00 in0.0 mm
09:00 AM 64.1°F17.8°C 56.0°F13.3°C 75% 4.7 mph SW7.6 kmh SW 9.8 mph15.8 kmh 29.36 in994.2 mb 0.00 in0.0 mm 0.00 in0.0 mm 0.00 in0.0 mm
09:05 AM 64.7°F18.2°C 56.4°F13.6°C 74% 8.7 mph S14.0 kmh S 17.4 mph28.0 kmh 29.36 in994.2 mb 0.00 in0.0 mm 0.00 in0.0 mm 0.00 in0.0 mm
09:10 AM 65.3°F18.5°C 56.6°F13.7°C 74% 5.4 mph SSW8.7 kmh SSW 9.8 mph15.8 kmh 29.36 in994.2 mb 0.00 in0.0 mm 0.00 in0.0 mm 0.00 in0.0 mm
09:15 AM 65.8°F18.8°C 56.7°F13.7°C 73% 3.7 mph SW6.0 kmh SW 7.4 mph11.9 kmh 29.36 in994.2 mb 0.00 in0.0 mm 0.00 in0.0 mm 0.00 in0.0 mm
09:20 AM 66.3°F19.1°C 56.9°F13.8°C 72% 8.9 mph SSE14.3 kmh SSE 27.5 mph44.3 kmh 29.36 in994.2 mb 0.00 in0.0 mm 0.00 in0.0 mm 0.00 in0.0 mm
09:25 AM 66.6°F19.2°C 57.1°F13.9°C 72% 6.2 mph S10.0 kmh S 17.4 mph28.0 kmh 29.36 in994.2 mb 0.00 in0.0 mm 0.00 in0.0 mm 0.00 in0.0 mm
09:30 AM 66.8°F19.3°C 57.0°F13.9°C 71% 4.9 mph SW7.9 kmh SW 9.8 mph15.8 kmh 29.36 in994.2 mb 0.00 in0.0 mm 0.00 in0.0 mm 0.00 in0.0 mm
09:35 AM 67.1°F19.5°C 56.5°F13.6°C 69% 6.1 mph S9.8 kmh S 15.0 mph24.1 kmh 29.36 in994.2 mb 0.00 in0.0 mm 0.00 in0.0 mm 0.00 in0.0 mm
09:40 AM 67.4°F19.7°C 55.9°F13.3°C 66% 7.5 mph SSE12.1 kmh SSE 19.9 mph32.0 kmh 29.36 in994.2 mb 0.00 in0.0 mm 0.00 in0.0 mm 0.00 in0.0 mm
09:45 AM 67.6°F19.8°C 55.5°F13.1°C 65% 6.8 mph S10.9 kmh S 15.0 mph24.1 kmh 29.36 in994.2 mb 0.00 in0.0 mm 0.00 in0.0 mm 0.00 in0.0 mm
09:50 AM 67.9°F19.9°C 55.4°F13.0°C 64% 7.8 mph SE12.6 kmh SE 17.4 mph28.0 kmh 29.36 in994.2 mb 0.00 in0.0 mm 0.00 in0.0 mm 0.00 in0.0 mm
09:55 AM 68.2°F20.1°C 55.5°F13.1°C 64% 10.4 mph S16.7 kmh S 22.4 mph36.0 kmh 29.35 in993.9 mb 0.00 in0.0 mm 0.00 in0.0 mm 0.00 in0.0 mm
10:00 AM 68.5°F20.3°C 55.3°F12.9°C 63% 7.3 mph S11.7 kmh S 15.0 mph24.1 kmh 29.35 in993.9 mb 0.00 in0.0 mm 0.00 in0.0 mm 0.00 in0.0 mm
10:05 AM 68.7°F20.4°C 55.0°F12.8°C 62% 6.0 mph SW9.7 kmh SW 12.3 mph19.8 kmh 29.35 in993.9 mb 0.00 in0.0 mm 0.00 in0.0 mm 0.00 in0.0 mm
10:10 AM 69.0°F20.6°C 54.6°F12.6°C 60% 3.8 mph SSW6.1 kmh SSW 7.4 mph11.9 kmh 29.35 in993.9 mb 0.00 in0.0 mm 0.00 in0.0 mm 0.00 in0.0 mm
10:15 AM 69.2°F20.7°C 54.1°F12.3°C 59% 3.3 mph SW5.3 kmh SW 7.4 mph11.9 kmh 29.35 in993.9 mb 0.00 in0.0 mm 0.00 in0.0 mm 0.00 in0.0 mm
10:20 AM 69.4°F20.8°C 54.1°F12.3°C 58% 5.2 mph S8.4 kmh S 9.8 mph15.8 kmh 29.35 in993.9 mb 0.00 in0.0 mm 0.00 in0.0 mm 0.00 in0.0 mm
10:25 AM 69.7°F20.9°C 54.1°F12.3°C 58% 7.4 mph S11.9 kmh S 15.0 mph24.1 kmh 29.35 in993.9 mb 0.00 in0.0 mm 0.00 in0.0 mm 0.00 in0.0 mm
10:30 AM 70.0°F21.1°C 54.4°F12.4°C 58% 7.7 mph SSW12.4 kmh SSW 15.0 mph24.1 kmh 29.36 in994.2 mb 0.00 in0.0 mm 0.00 in0.0 mm 0.00 in0.0 mm
10:35 AM 70.1°F21.2°C 54.2°F12.3°C 57% 4.5 mph WSW7.2 kmh WSW 7.4 mph11.9 kmh 29.36 in994.2 mb 0.00 in0.0 mm 0.00 in0.0 mm 0.00 in0.0 mm
10:40 AM 70.3°F21.3°C 53.9°F12.2°C 56% 6.3 mph SSE10.1 kmh SSE 15.0 mph24.1 kmh 29.36 in994.2 mb 0.00 in0.0 mm 0.00 in0.0 mm 0.00 in0.0 mm
10:45 AM 70.5°F21.4°C 53.9°F12.2°C 56% 5.8 mph SW9.3 kmh SW 9.8 mph15.8 kmh 29.36 in994.2 mb 0.00 in0.0 mm 0.00 in0.0 mm 0.00 in0.0 mm
10:50 AM 70.8°F21.6°C 53.5°F11.9°C 54% 8.5 mph S13.7 kmh S 17.4 mph28.0 kmh 29.36 in994.2 mb 0.00 in0.0 mm 0.00 in0.0 mm 0.00 in0.0 mm
10:55 AM 71.0°F21.7°C 53.0°F11.7°C 53% 10.9 mph SSE17.5 kmh SSE 17.4 mph28.0 kmh 29.35 in993.9 mb 0.00 in0.0 mm 0.00 in0.0 mm 0.00 in0.0 mm
11:00 AM 71.2°F21.8°C 53.0°F11.7°C 53% 4.0 mph SW6.4 kmh SW 7.4 mph11.9 kmh 29.36 in994.2 mb 0.00 in0.0 mm 0.00 in0.0 mm 0.00 in0.0 mm
11:05 AM 71.6°F22.0°C 53.4°F11.9°C 53% 6.2 mph S10.0 kmh S 19.9 mph32.0 kmh 29.36 in994.2 mb 0.00 in0.0 mm 0.00 in0.0 mm 0.00 in0.0 mm
11:10 AM 72.0°F22.2°C 53.4°F11.9°C 52% 5.0 mph SSW8.0 kmh SSW 9.8 mph15.8 kmh 29.36 in994.2 mb 0.00 in0.0 mm 0.00 in0.0 mm 0.00 in0.0 mm
11:15 AM 72.4°F22.4°C 53.8°F12.1°C 52% 6.0 mph SW9.7 kmh SW 15.0 mph24.1 kmh 29.35 in993.9 mb 0.00 in0.0 mm 0.00 in0.0 mm 0.00 in0.0 mm
11:20 AM 72.7°F22.6°C 54.0°F12.2°C 52% 6.4 mph S10.3 kmh S 12.3 mph19.8 kmh 29.35 in993.9 mb 0.00 in0.0 mm 0.00 in0.0 mm 0.00 in0.0 mm
11:25 AM 73.0°F22.8°C 54.3°F12.4°C 52% 9.7 mph S15.6 kmh S 17.4 mph28.0 kmh 29.35 in993.9 mb 0.00 in0.0 mm 0.00 in0.0 mm 0.00 in0.0 mm
11:30 AM 73.2°F22.9°C 54.4°F12.4°C 52% 5.0 mph SW8.0 kmh SW 7.4 mph11.9 kmh 29.35 in993.9 mb 0.00 in0.0 mm 0.00 in0.0 mm 0.00 in0.0 mm
11:35 AM 73.6°F23.1°C 53.8°F12.1°C 50% 6.4 mph S10.3 kmh S 15.0 mph24.1 kmh 29.34 in993.6 mb 0.00 in0.0 mm 0.00 in0.0 mm 0.00 in0.0 mm
11:40 AM 73.8°F23.2°C 54.5°F12.5°C 51% 8.3 mph SSW13.4 kmh SSW 19.9 mph32.0 kmh 29.35 in993.9 mb 0.00 in0.0 mm 0.00 in0.0 mm 0.00 in0.0 mm
11:45 AM 74.1°F23.4°C 54.2°F12.3°C 50% 5.2 mph SSW8.4 kmh SSW 9.8 mph15.8 kmh 29.35 in993.9 mb 0.00 in0.0 mm 0.00 in0.0 mm 0.00 in0.0 mm
11:50 AM 74.5°F23.6°C 53.4°F11.9°C 48% 8.1 mph S13.0 kmh S 22.4 mph36.0 kmh 29.34 in993.6 mb 0.00 in0.0 mm 0.00 in0.0 mm 0.00 in0.0 mm
11:55 AM 74.8°F23.8°C 53.6°F12.0°C 48% 3.5 mph SSW5.6 kmh SSW 9.8 mph15.8 kmh 29.34 in993.6 mb 0.00 in0.0 mm 0.00 in0.0 mm 0.00 in0.0 mm
12:00 PM 75.1°F23.9°C 54.1°F12.3°C 48% 11.4 mph S18.3 kmh S 24.8 mph39.9 kmh 29.34 in993.6 mb 0.00 in0.0 mm 0.00 in0.0 mm 0.00 in0.0 mm
12:05 PM 75.3°F24.1°C 53.8°F12.1°C 47% 4.6 mph S7.4 kmh S 9.8 mph15.8 kmh 29.34 in993.6 mb 0.00 in0.0 mm 0.00 in0.0 mm 0.00 in0.0 mm
12:10 PM 75.5°F24.2°C 52.4°F11.3°C 45% 3.8 mph SW6.1 kmh SW 9.8 mph15.8 kmh 29.33 in993.2 mb 0.00 in0.0 mm 0.00 in0.0 mm 0.00 in0.0 mm
12:15 PM 76.0°F24.4°C 51.8°F11.0°C 43% 4.6 mph SSW7.4 kmh SSW 7.4 mph11.9 kmh 29.33 in993.2 mb 0.00 in0.0 mm 0.00 in0.0 mm 0.00 in0.0 mm
12:20 PM 76.4°F24.7°C 52.2°F11.2°C 43% 5.4 mph S8.7 kmh S 12.3 mph19.8 kmh 29.33 in993.2 mb 0.00 in0.0 mm 0.00 in0.0 mm 0.00 in0.0 mm
12:25 PM 76.7°F24.8°C 52.3°F11.3°C 43% 9.5 mph S15.3 kmh S 22.4 mph36.0 kmh 29.33 in993.2 mb 0.00 in0.0 mm 0.00 in0.0 mm 0.00 in0.0 mm
12:30 PM 77.0°F25.0°C 51.7°F10.9°C 41% 4.8 mph SW7.7 kmh SW 9.8 mph15.8 kmh 29.33 in993.2 mb 0.00 in0.0 mm 0.00 in0.0 mm 0.00 in0.0 mm
12:35 PM 77.4°F25.2°C 52.0°F11.1°C 41% 9.2 mph S14.8 kmh S 22.4 mph36.0 kmh 29.33 in993.2 mb 0.00 in0.0 mm 0.00 in0.0 mm 0.00 in0.0 mm
12:40 PM 77.5°F25.3°C 51.2°F10.7°C 40% 7.1 mph SSW11.4 kmh SSW 17.4 mph28.0 kmh 29.32 in992.9 mb 0.00 in0.0 mm 0.00 in0.0 mm 0.00 in0.0 mm
12:45 PM 77.7°F25.4°C 51.0°F10.6°C 39% 5.5 mph SW8.9 kmh SW 9.8 mph15.8 kmh 29.32 in992.9 mb 0.00 in0.0 mm 0.00 in0.0 mm 0.00 in0.0 mm
12:50 PM 77.7°F25.4°C 51.3°F10.7°C 40% 6.0 mph SSE9.7 kmh SSE 12.3 mph19.8 kmh 29.32 in992.9 mb 0.00 in0.0 mm 0.00 in0.0 mm 0.00 in0.0 mm
12:55 PM 78.0°F25.6°C 51.6°F10.9°C 40% 6.9 mph S11.1 kmh S 17.4 mph28.0 kmh 29.32 in992.9 mb 0.00 in0.0 mm 0.00 in0.0 mm 0.00 in0.0 mm
01:00 PM 78.3°F25.7°C 52.5°F11.4°C 41% 8.2 mph SSE13.2 kmh SSE 17.4 mph28.0 kmh 29.31 in992.6 mb 0.00 in0.0 mm 0.00 in0.0 mm 0.00 in0.0 mm
01:05 PM 78.3°F25.7°C 52.3°F11.3°C 40% 8.0 mph S12.9 kmh S 17.4 mph28.0 kmh 29.32 in992.9 mb 0.00 in0.0 mm 0.00 in0.0 mm 0.00 in0.0 mm
01:10 PM 78.4°F25.8°C 52.3°F11.3°C 40% 6.3 mph SSW10.1 kmh SSW 17.4 mph28.0 kmh 29.31 in992.6 mb 0.00 in0.0 mm 0.00 in0.0 mm 0.00 in0.0 mm
01:15 PM 78.5°F25.8°C 51.7°F10.9°C 39% 9.0 mph S14.5 kmh S 19.9 mph32.0 kmh 29.31 in992.6 mb 0.00 in0.0 mm 0.00 in0.0 mm 0.00 in0.0 mm
01:20 PM 78.7°F25.9°C 51.8°F11.0°C 39% 9.8 mph S15.8 kmh S 19.9 mph32.0 kmh 29.31 in992.6 mb 0.00 in0.0 mm 0.00 in0.0 mm 0.00 in0.0 mm
01:25 PM 78.8°F26.0°C 51.7°F10.9°C 39% 9.2 mph S14.8 kmh S 15.0 mph24.1 kmh 29.31 in992.6 mb 0.00 in0.0 mm 0.00 in0.0 mm 0.00 in0.0 mm
01:30 PM 78.9°F26.1°C 51.4°F10.8°C 38% 4.6 mph S7.4 kmh S 15.0 mph24.1 kmh 29.30 in992.2 mb 0.00 in0.0 mm 0.00 in0.0 mm 0.00 in0.0 mm
01:35 PM 79.2°F26.2°C 50.4°F10.2°C 37% 3.2 mph SW5.1 kmh SW 7.4 mph11.9 kmh 29.30 in992.2 mb 0.00 in0.0 mm 0.00 in0.0 mm 0.00 in0.0 mm
01:40 PM 79.6°F26.4°C 50.0°F10.0°C 36% 7.5 mph SSE12.1 kmh SSE 12.3 mph19.8 kmh 29.30 in992.2 mb 0.00 in0.0 mm 0.00 in0.0 mm 0.00 in0.0 mm
01:45 PM 79.8°F26.6°C 49.6°F9.8°C 35% 8.4 mph SSW13.5 kmh SSW 22.4 mph36.0 kmh 29.30 in992.2 mb 0.00 in0.0 mm 0.00 in0.0 mm 0.00 in0.0 mm
01:50 PM 79.9°F26.6°C 50.6°F10.3°C 36% 6.9 mph SSW11.1 kmh SSW 15.0 mph24.1 kmh 29.30 in992.2 mb 0.00 in0.0 mm 0.00 in0.0 mm 0.00 in0.0 mm
01:55 PM 80.1°F26.7°C 50.5°F10.3°C 36% 7.7 mph SSW12.4 kmh SSW 17.4 mph28.0 kmh 29.30 in992.2 mb 0.00 in0.0 mm 0.00 in0.0 mm 0.00 in0.0 mm
02:00 PM 80.2°F26.8°C 50.0°F10.0°C 35% 6.3 mph SW10.1 kmh SW 22.4 mph36.0 kmh 29.29 in991.9 mb 0.00 in0.0 mm 0.00 in0.0 mm 0.00 in0.0 mm
02:05 PM 80.2°F26.8°C 49.4°F9.7°C 34% 7.0 mph S11.3 kmh S 22.4 mph36.0 kmh 29.29 in991.9 mb 0.00 in0.0 mm 0.00 in0.0 mm 0.00 in0.0 mm
02:10 PM 80.3°F26.8°C 49.6°F9.8°C 34% 6.0 mph SSE9.7 kmh SSE 9.8 mph15.8 kmh 29.28 in991.5 mb 0.00 in0.0 mm 0.00 in0.0 mm 0.00 in0.0 mm
02:15 PM 80.5°F26.9°C 49.6°F9.8°C 34% 8.3 mph SSE13.4 kmh SSE 19.9 mph32.0 kmh 29.28 in991.5 mb 0.00 in0.0 mm 0.00 in0.0 mm 0.00 in0.0 mm
02:20 PM 80.9°F27.2°C 50.0°F10.0°C 34% 5.0 mph SSW8.0 kmh SSW 12.3 mph19.8 kmh 29.28 in991.5 mb 0.00 in0.0 mm 0.00 in0.0 mm 0.00 in0.0 mm
02:25 PM 81.2°F27.3°C 49.6°F9.8°C 33% 5.7 mph S9.2 kmh S 15.0 mph24.1 kmh 29.28 in991.5 mb 0.00 in0.0 mm 0.00 in0.0 mm 0.00 in0.0 mm
02:30 PM 81.5°F27.5°C 49.9°F9.9°C 33% 10.2 mph S16.4 kmh S 19.9 mph32.0 kmh 29.27 in991.2 mb 0.00 in0.0 mm 0.00 in0.0 mm 0.00 in0.0 mm
02:35 PM 81.6°F27.6°C 50.6°F10.3°C 34% 4.2 mph S6.8 kmh S 9.8 mph15.8 kmh 29.27 in991.2 mb 0.00 in0.0 mm 0.00 in0.0 mm 0.00 in0.0 mm
02:40 PM 81.8°F27.7°C 50.4°F10.2°C 34% 7.1 mph S11.4 kmh S 17.4 mph28.0 kmh 29.28 in991.5 mb 0.00 in0.0 mm 0.00 in0.0 mm 0.00 in0.0 mm
02:45 PM 82.0°F27.8°C 51.0°F10.6°C 34% 7.8 mph SSE12.6 kmh SSE 15.0 mph24.1 kmh 29.27 in991.2 mb 0.00 in0.0 mm 0.00 in0.0 mm 0.00 in0.0 mm
02:50 PM 82.2°F27.9°C 51.7°F10.9°C 35% 7.6 mph S12.2 kmh S 19.9 mph32.0 kmh 29.27 in991.2 mb 0.00 in0.0 mm 0.00 in0.0 mm 0.00 in0.0 mm
02:55 PM 82.1°F27.8°C 51.2°F10.7°C 34% 9.1 mph SSW14.6 kmh SSW 22.4 mph36.0 kmh 29.27 in991.2 mb 0.00 in0.0 mm 0.00 in0.0 mm 0.00 in0.0 mm
03:00 PM 82.3°F27.9°C 51.6°F10.9°C 35% 6.5 mph SSE10.5 kmh SSE 19.9 mph32.0 kmh 29.27 in991.2 mb 0.00 in0.0 mm 0.00 in0.0 mm 0.00 in0.0 mm
03:05 PM 82.5°F28.1°C 51.3°F10.7°C 34% 9.4 mph S15.1 kmh S 24.8 mph39.9 kmh 29.26 in990.9 mb 0.00 in0.0 mm 0.00 in0.0 mm 0.00 in0.0 mm
03:10 PM 82.6°F28.1°C 51.2°F10.7°C 34% 7.6 mph S12.2 kmh S 17.4 mph28.0 kmh 29.26 in990.9 mb 0.00 in0.0 mm 0.00 in0.0 mm 0.00 in0.0 mm
03:15 PM 82.6°F28.1°C 50.4°F10.2°C 33% 14.0 mph SSE22.5 kmh SSE 22.4 mph36.0 kmh 29.26 in990.9 mb 0.00 in0.0 mm 0.00 in0.0 mm 0.00 in0.0 mm
03:20 PM 82.6°F28.1°C 50.9°F10.5°C 34% 13.4 mph SSE21.6 kmh SSE 24.8 mph39.9 kmh 29.25 in990.5 mb 0.00 in0.0 mm 0.00 in0.0 mm 0.00 in0.0 mm
03:25 PM 82.4°F28.0°C 51.7°F10.9°C 35% 9.7 mph S15.6 kmh S 19.9 mph32.0 kmh 29.25 in990.5 mb 0.00 in0.0 mm 0.00 in0.0 mm 0.00 in0.0 mm
03:30 PM 82.4°F28.0°C 51.7°F10.9°C 35% 9.0 mph SE14.5 kmh SE 22.4 mph36.0 kmh 29.25 in990.5 mb 0.00 in0.0 mm 0.00 in0.0 mm 0.00 in0.0 mm
03:35 PM 82.3°F27.9°C 50.9°F10.5°C 34% 8.0 mph S12.9 kmh S 17.4 mph28.0 kmh 29.25 in990.5 mb 0.00 in0.0 mm 0.00 in0.0 mm 0.00 in0.0 mm
03:40 PM 82.2°F27.9°C 51.0°F10.6°C 34% 11.2 mph SSE18.0 kmh SSE 22.4 mph36.0 kmh 29.24 in990.2 mb 0.00 in0.0 mm 0.00 in0.0 mm 0.00 in0.0 mm
03:45 PM 82.2°F27.9°C 50.7°F10.4°C 34% 10.8 mph SSE17.4 kmh SSE 17.4 mph28.0 kmh 29.24 in990.2 mb 0.00 in0.0 mm 0.00 in0.0 mm 0.00 in0.0 mm
03:50 PM 82.3°F27.9°C 51.1°F10.6°C 34% 8.5 mph S13.7 kmh S 17.4 mph28.0 kmh 29.24 in990.2 mb 0.00 in0.0 mm 0.00 in0.0 mm 0.00 in0.0 mm
03:55 PM 82.4°F28.0°C 51.2°F10.7°C 34% 12.6 mph S20.3 kmh S 19.9 mph32.0 kmh 29.24 in990.2 mb 0.00 in0.0 mm 0.00 in0.0 mm 0.00 in0.0 mm
04:00 PM 82.6°F28.1°C 51.4°F10.8°C 34% 10.1 mph S16.3 kmh S 19.9 mph32.0 kmh 29.23 in989.8 mb 0.00 in0.0 mm 0.00 in0.0 mm 0.00 in0.0 mm
04:05 PM 82.7°F28.2°C 51.5°F10.8°C 34% 9.6 mph S15.4 kmh S 17.4 mph28.0 kmh 29.23 in989.8 mb 0.00 in0.0 mm 0.00 in0.0 mm 0.00 in0.0 mm
04:10 PM 82.8°F28.2°C 52.8°F11.6°C 36% 11.3 mph SSE18.2 kmh SSE 24.8 mph39.9 kmh 29.22 in989.5 mb 0.00 in0.0 mm 0.00 in0.0 mm 0.00 in0.0 mm
04:15 PM 82.8°F28.2°C 54.2°F12.3°C 38% 10.4 mph S16.7 kmh S 19.9 mph32.0 kmh 29.22 in989.5 mb 0.00 in0.0 mm 0.00 in0.0 mm 0.00 in0.0 mm
04:20 PM 82.8°F28.2°C 53.8°F12.1°C 37% 10.5 mph SSE16.9 kmh SSE 30.0 mph48.3 kmh 29.23 in989.8 mb 0.00 in0.0 mm 0.00 in0.0 mm 0.00 in0.0 mm
04:25 PM 82.6°F28.1°C 54.4°F12.4°C 38% 15.3 mph SSE24.6 kmh SSE 27.5 mph44.3 kmh 29.22 in989.5 mb 0.00 in0.0 mm 0.00 in0.0 mm 0.00 in0.0 mm
04:30 PM 82.6°F28.1°C 53.7°F12.1°C 37% 11.1 mph SE17.9 kmh SE 24.8 mph39.9 kmh 29.21 in989.2 mb 0.00 in0.0 mm 0.00 in0.0 mm 0.00 in0.0 mm
04:35 PM 82.4°F28.0°C 53.2°F11.8°C 37% 5.0 mph S8.0 kmh S 12.3 mph19.8 kmh 29.21 in989.2 mb 0.00 in0.0 mm 0.00 in0.0 mm 0.00 in0.0 mm
04:40 PM 82.5°F28.1°C 52.8°F11.6°C 36% 10.4 mph SSE16.7 kmh SSE 19.9 mph32.0 kmh 29.21 in989.2 mb 0.00 in0.0 mm 0.00 in0.0 mm 0.00 in0.0 mm
04:45 PM 82.6°F28.1°C 52.9°F11.6°C 36% 8.5 mph S13.7 kmh S 19.9 mph32.0 kmh 29.21 in989.2 mb 0.00 in0.0 mm 0.00 in0.0 mm 0.00 in0.0 mm
04:50 PM 82.7°F28.2°C 54.2°F12.3°C 38% 11.0 mph S17.7 kmh S 24.8 mph39.9 kmh 29.21 in989.2 mb 0.00 in0.0 mm 0.00 in0.0 mm 0.00 in0.0 mm
04:55 PM 82.6°F28.1°C 54.9°F12.7°C 39% 9.8 mph SSE15.8 kmh SSE 22.4 mph36.0 kmh 29.21 in989.2 mb 0.00 in0.0 mm 0.00 in0.0 mm 0.00 in0.0 mm
05:00 PM 82.5°F28.1°C 54.3°F12.4°C 38% 9.1 mph S14.6 kmh S 19.9 mph32.0 kmh 29.21 in989.2 mb 0.00 in0.0 mm 0.00 in0.0 mm 0.00 in0.0 mm
05:05 PM 82.4°F28.0°C 54.0°F12.2°C 38% 10.0 mph S16.1 kmh S 19.9 mph32.0 kmh 29.20 in988.8 mb 0.00 in0.0 mm 0.00 in0.0 mm 0.00 in0.0 mm
05:10 PM 82.4°F28.0°C 53.6°F12.0°C 37% 12.7 mph S20.4 kmh S 24.8 mph39.9 kmh 29.20 in988.8 mb 0.00 in0.0 mm 0.00 in0.0 mm 0.00 in0.0 mm
05:15 PM 82.2°F27.9°C 53.4°F11.9°C 37% 9.0 mph S14.5 kmh S 15.0 mph24.1 kmh 29.20 in988.8 mb 0.00 in0.0 mm 0.00 in0.0 mm 0.00 in0.0 mm
05:20 PM 82.3°F27.9°C 53.2°F11.8°C 37% 12.7 mph SSE20.4 kmh SSE 22.4 mph36.0 kmh 29.21 in989.2 mb 0.00 in0.0 mm 0.00 in0.0 mm 0.00 in0.0 mm
05:25 PM 82.4°F28.0°C 53.6°F12.0°C 37% 12.3 mph S19.8 kmh S 19.9 mph32.0 kmh 29.20 in988.8 mb 0.00 in0.0 mm 0.00 in0.0 mm 0.00 in0.0 mm
05:30 PM 82.5°F28.1°C 54.3°F12.4°C 38% 12.8 mph SSE20.6 kmh SSE 22.4 mph36.0 kmh 29.20 in988.8 mb 0.00 in0.0 mm 0.00 in0.0 mm 0.00 in0.0 mm
05:35 PM 82.5°F28.1°C 54.2°F12.3°C 38% 10.8 mph SE17.4 kmh SE 27.5 mph44.3 kmh 29.20 in988.8 mb 0.00 in0.0 mm 0.00 in0.0 mm 0.00 in0.0 mm
05:40 PM 82.4°F28.0°C 53.7°F12.1°C 37% 6.3 mph S10.1 kmh S 19.9 mph32.0 kmh 29.20 in988.8 mb 0.00 in0.0 mm 0.00 in0.0 mm 0.00 in0.0 mm
05:45 PM 82.4°F28.0°C 54.2°F12.3°C 38% 5.6 mph S9.0 kmh S 17.4 mph28.0 kmh 29.20 in988.8 mb 0.00 in0.0 mm 0.00 in0.0 mm 0.00 in0.0 mm
05:50 PM 82.4°F28.0°C 54.8°F12.7°C 39% 9.9 mph SE15.9 kmh SE 17.4 mph28.0 kmh 29.19 in988.5 mb 0.00 in0.0 mm 0.00 in0.0 mm 0.00 in0.0 mm
05:55 PM 82.2°F27.9°C 54.7°F12.6°C 39% 13.8 mph SSE22.2 kmh SSE 30.0 mph48.3 kmh 29.20 in988.8 mb 0.00 in0.0 mm 0.00 in0.0 mm 0.00 in0.0 mm
06:00 PM 82.1°F27.8°C 54.7°F12.6°C 39% 9.8 mph S15.8 kmh S 22.4 mph36.0 kmh 29.20 in988.8 mb 0.00 in0.0 mm 0.00 in0.0 mm 0.00 in0.0 mm
06:05 PM 82.0°F27.8°C 54.6°F12.6°C 39% 12.7 mph SE20.4 kmh SE 19.9 mph32.0 kmh 29.20 in988.8 mb 0.00 in0.0 mm 0.00 in0.0 mm 0.00 in0.0 mm
06:10 PM 81.9°F27.7°C 54.9°F12.7°C 40% 9.9 mph SSE15.9 kmh SSE 15.0 mph24.1 kmh 29.20 in988.8 mb 0.00 in0.0 mm 0.00 in0.0 mm 0.00 in0.0 mm
06:15 PM 81.6°F27.6°C 54.9°F12.7°C 40% 10.4 mph S16.7 kmh S 19.9 mph32.0 kmh 29.20 in988.8 mb 0.00 in0.0 mm 0.00 in0.0 mm 0.00 in0.0 mm
06:20 PM 81.5°F27.5°C 54.8°F12.7°C 40% 8.9 mph SSE14.3 kmh SSE 17.4 mph28.0 kmh 29.20 in988.8 mb 0.00 in0.0 mm 0.00 in0.0 mm 0.00 in0.0 mm
06:25 PM 81.3°F27.4°C 55.0°F12.8°C 40% 9.1 mph S14.6 kmh S 22.4 mph36.0 kmh 29.20 in988.8 mb 0.00 in0.0 mm 0.00 in0.0 mm 0.00 in0.0 mm
06:30 PM 81.2°F27.3°C 55.3°F12.9°C 41% 6.9 mph SSW11.1 kmh SSW 15.0 mph24.1 kmh 29.20 in988.8 mb 0.00 in0.0 mm 0.00 in0.0 mm 0.00 in0.0 mm
06:35 PM 81.1°F27.3°C 55.1°F12.8°C 41% 10.6 mph SE17.1 kmh SE 24.8 mph39.9 kmh 29.20 in988.8 mb 0.00 in0.0 mm 0.00 in0.0 mm 0.00 in0.0 mm
06:40 PM 81.0°F27.2°C 55.1°F12.8°C 41% 13.7 mph SSE22.0 kmh SSE 22.4 mph36.0 kmh 29.20 in988.8 mb 0.00 in0.0 mm 0.00 in0.0 mm 0.00 in0.0 mm
06:45 PM 80.9°F27.2°C 55.0°F12.8°C 41% 8.3 mph SSE13.4 kmh SSE 19.9 mph32.0 kmh 29.20 in988.8 mb 0.00 in0.0 mm 0.00 in0.0 mm 0.00 in0.0 mm
06:50 PM 80.8°F27.1°C 55.6°F13.1°C 42% 10.4 mph SSE16.7 kmh SSE 19.9 mph32.0 kmh 29.20 in988.8 mb 0.00 in0.0 mm 0.00 in0.0 mm 0.00 in0.0 mm
06:55 PM 80.6°F27.0°C 56.0°F13.3°C 43% 8.8 mph S14.2 kmh S 12.3 mph19.8 kmh 29.20 in988.8 mb 0.00 in0.0 mm 0.00 in0.0 mm 0.00 in0.0 mm
07:00 PM 80.3°F26.8°C 55.8°F13.2°C 43% 13.2 mph SSE21.2 kmh SSE 19.9 mph32.0 kmh 29.20 in988.8 mb 0.00 in0.0 mm 0.00 in0.0 mm 0.00 in0.0 mm
07:05 PM 80.2°F26.8°C 55.6°F13.1°C 43% 11.9 mph S19.2 kmh S 27.5 mph44.3 kmh 29.20 in988.8 mb 0.00 in0.0 mm 0.00 in0.0 mm 0.00 in0.0 mm
07:10 PM 80.0°F26.7°C 55.5°F13.1°C 43% 10.9 mph S17.5 kmh S 19.9 mph32.0 kmh 29.20 in988.8 mb 0.00 in0.0 mm 0.00 in0.0 mm 0.00 in0.0 mm
07:15 PM 79.8°F26.6°C 55.3°F12.9°C 43% 8.5 mph SE13.7 kmh SE 15.0 mph24.1 kmh 29.19 in988.5 mb 0.00 in0.0 mm 0.00 in0.0 mm 0.00 in0.0 mm
07:20 PM 79.4°F26.3°C 55.0°F12.8°C 43% 8.9 mph SSE14.3 kmh SSE 15.0 mph24.1 kmh 29.18 in988.1 mb 0.00 in0.0 mm 0.00 in0.0 mm 0.00 in0.0 mm
07:25 PM 79.2°F26.2°C 55.2°F12.9°C 44% 12.7 mph S20.4 kmh S 24.8 mph39.9 kmh 29.18 in988.1 mb 0.00 in0.0 mm 0.00 in0.0 mm 0.00 in0.0 mm
07:30 PM 79.1°F26.2°C 55.3°F12.9°C 44% 8.7 mph SSE14.0 kmh SSE 19.9 mph32.0 kmh 29.18 in988.1 mb 0.00 in0.0 mm 0.00 in0.0 mm 0.00 in0.0 mm
07:35 PM 79.0°F26.1°C 55.2°F12.9°C 44% 10.7 mph SSE17.2 kmh SSE 19.9 mph32.0 kmh 29.19 in988.5 mb 0.00 in0.0 mm 0.00 in0.0 mm 0.00 in0.0 mm
07:40 PM 78.8°F26.0°C 55.1°F12.8°C 44% 9.3 mph SSE15.0 kmh SSE 15.0 mph24.1 kmh 29.19 in988.5 mb 0.00 in0.0 mm 0.00 in0.0 mm 0.00 in0.0 mm
07:45 PM 78.6°F25.9°C 55.5°F13.1°C 45% 10.2 mph S16.4 kmh S 15.0 mph24.1 kmh 29.20 in988.8 mb 0.00 in0.0 mm 0.00 in0.0 mm 0.00 in0.0 mm
07:50 PM 78.5°F25.8°C 55.4°F13.0°C 45% 6.1 mph S9.8 kmh S 12.3 mph19.8 kmh 29.19 in988.5 mb 0.00 in0.0 mm 0.00 in0.0 mm 0.00 in0.0 mm
07:55 PM 78.3°F25.7°C 55.2°F12.9°C 45% 5.5 mph SE8.9 kmh SE 12.3 mph19.8 kmh 29.20 in988.8 mb 0.00 in0.0 mm 0.00 in0.0 mm 0.00 in0.0 mm
08:00 PM 78.0°F25.6°C 54.9°F12.7°C 45% 7.8 mph SSE12.6 kmh SSE 15.0 mph24.1 kmh 29.20 in988.8 mb 0.00 in0.0 mm 0.00 in0.0 mm 0.00 in0.0 mm
08:05 PM 77.8°F25.4°C 55.0°F12.8°C 46% 10.4 mph S16.7 kmh S 22.4 mph36.0 kmh 29.20 in988.8 mb 0.00 in0.0 mm 0.00 in0.0 mm 0.00 in0.0 mm
08:10 PM 77.5°F25.3°C 56.0°F13.3°C 48% 5.8 mph SSE9.3 kmh SSE 12.3 mph19.8 kmh 29.20 in988.8 mb 0.00 in0.0 mm 0.00 in0.0 mm 0.00 in0.0 mm
08:15 PM 77.3°F25.2°C 57.2°F14.0°C 50% 6.9 mph S11.1 kmh S 15.0 mph24.1 kmh 29.20 in988.8 mb 0.00 in0.0 mm 0.00 in0.0 mm 0.00 in0.0 mm
08:20 PM 77.2°F25.1°C 57.7°F14.3°C 51% 10.7 mph SSE17.2 kmh SSE 19.9 mph32.0 kmh 29.20 in988.8 mb 0.00 in0.0 mm 0.00 in0.0 mm 0.00 in0.0 mm
08:25 PM 77.0°F25.0°C 57.8°F14.3°C 52% 9.0 mph S14.5 kmh S 15.0 mph24.1 kmh 29.21 in989.2 mb 0.00 in0.0 mm 0.00 in0.0 mm 0.00 in0.0 mm
08:30 PM 77.0°F25.0°C 58.5°F14.7°C 53% 9.2 mph S14.8 kmh S 15.0 mph24.1 kmh 29.20 in988.8 mb 0.00 in0.0 mm 0.00 in0.0 mm 0.00 in0.0 mm
08:35 PM 76.9°F24.9°C 58.9°F14.9°C 54% 7.8 mph S12.6 kmh S 19.9 mph32.0 kmh 29.21 in989.2 mb 0.00 in0.0 mm 0.00 in0.0 mm 0.00 in0.0 mm
08:40 PM 76.8°F24.9°C 58.9°F14.9°C 54% 6.2 mph S10.0 kmh S 15.0 mph24.1 kmh 29.21 in989.2 mb 0.00 in0.0 mm 0.00 in0.0 mm 0.00 in0.0 mm
08:45 PM 76.6°F24.8°C 58.7°F14.8°C 54% 7.2 mph S11.6 kmh S 15.0 mph24.1 kmh 29.21 in989.2 mb 0.00 in0.0 mm 0.00 in0.0 mm 0.00 in0.0 mm
08:50 PM 76.5°F24.7°C 58.6°F14.8°C 54% 7.4 mph SE11.9 kmh SE 17.4 mph28.0 kmh 29.22 in989.5 mb 0.00 in0.0 mm 0.00 in0.0 mm 0.00 in0.0 mm
08:55 PM 76.3°F24.6°C 58.4°F14.7°C 54% 7.4 mph SSE11.9 kmh SSE 17.4 mph28.0 kmh 29.21 in989.2 mb 0.00 in0.0 mm 0.00 in0.0 mm 0.00 in0.0 mm
09:00 PM 76.1°F24.5°C 58.2°F14.6°C 54% 7.6 mph SSW12.2 kmh SSW 19.9 mph32.0 kmh 29.21 in989.2 mb 0.00 in0.0 mm 0.00 in0.0 mm 0.00 in0.0 mm
09:05 PM 75.9°F24.4°C 58.0°F14.4°C 54% 10.7 mph S17.2 kmh S 17.4 mph28.0 kmh 29.22 in989.5 mb 0.00 in0.0 mm 0.00 in0.0 mm 0.00 in0.0 mm
09:10 PM 75.8°F24.3°C 57.9°F14.4°C 54% 9.7 mph SSE15.6 kmh SSE 17.4 mph28.0 kmh 29.22 in989.5 mb 0.00 in0.0 mm 0.00 in0.0 mm 0.00 in0.0 mm
09:15 PM 75.7°F24.3°C 57.8°F14.3°C 54% 6.3 mph S10.1 kmh S 15.0 mph24.1 kmh 29.22 in989.5 mb 0.00 in0.0 mm 0.00 in0.0 mm 0.00 in0.0 mm
09:20 PM 75.6°F24.2°C 58.5°F14.7°C 56% 7.4 mph S11.9 kmh S 12.3 mph19.8 kmh 29.23 in989.8 mb 0.00 in0.0 mm 0.00 in0.0 mm 0.00 in0.0 mm
09:25 PM 75.3°F24.1°C 58.5°F14.7°C 56% 7.9 mph S12.7 kmh S 17.4 mph28.0 kmh 29.22 in989.5 mb 0.00 in0.0 mm 0.00 in0.0 mm 0.00 in0.0 mm
09:30 PM 75.2°F24.0°C 58.4°F14.7°C 56% 9.4 mph SSE15.1 kmh SSE 19.9 mph32.0 kmh 29.23 in989.8 mb 0.00 in0.0 mm 0.00 in0.0 mm 0.00 in0.0 mm
09:35 PM 75.0°F23.9°C 58.2°F14.6°C 56% 7.8 mph SSW12.6 kmh SSW 27.5 mph44.3 kmh 29.22 in989.5 mb 0.00 in0.0 mm 0.00 in0.0 mm 0.00 in0.0 mm
09:40 PM 74.8°F23.8°C 57.5°F14.2°C 55% 14.4 mph S23.2 kmh S 22.4 mph36.0 kmh 29.22 in989.5 mb 0.00 in0.0 mm 0.00 in0.0 mm 0.00 in0.0 mm
09:45 PM 74.7°F23.7°C 57.6°F14.2°C 55% 14.5 mph SSE23.3 kmh SSE 27.5 mph44.3 kmh 29.21 in989.2 mb 0.00 in0.0 mm 0.00 in0.0 mm 0.00 in0.0 mm
09:50 PM 74.6°F23.7°C 57.9°F14.4°C 56% 13.3 mph S21.4 kmh S 27.5 mph44.3 kmh 29.21 in989.2 mb 0.00 in0.0 mm 0.00 in0.0 mm 0.00 in0.0 mm
09:55 PM 74.5°F23.6°C 57.7°F14.3°C 56% 11.7 mph S18.8 kmh S 19.9 mph32.0 kmh 29.21 in989.2 mb 0.00 in0.0 mm 0.00 in0.0 mm 0.00 in0.0 mm
10:00 PM 74.3°F23.5°C 57.8°F14.3°C 56% 13.3 mph SSE21.4 kmh SSE 22.4 mph36.0 kmh 29.21 in989.2 mb 0.00 in0.0 mm 0.00 in0.0 mm 0.00 in0.0 mm
10:05 PM 74.1°F23.4°C 57.9°F14.4°C 57% 16.5 mph SSE26.6 kmh SSE 24.8 mph39.9 kmh 29.21 in989.2 mb 0.00 in0.0 mm 0.00 in0.0 mm 0.00 in0.0 mm
10:10 PM 73.9°F23.3°C 57.9°F14.4°C 57% 11.7 mph SSE18.8 kmh SSE 19.9 mph32.0 kmh 29.21 in989.2 mb 0.00 in0.0 mm 0.00 in0.0 mm 0.00 in0.0 mm
10:15 PM 73.8°F23.2°C 58.1°F14.5°C 58% 13.6 mph S21.9 kmh S 19.9 mph32.0 kmh 29.21 in989.2 mb 0.00 in0.0 mm 0.00 in0.0 mm 0.00 in0.0 mm
10:20 PM 73.6°F23.1°C 57.9°F14.4°C 58% 13.9 mph SSE22.4 kmh SSE 27.5 mph44.3 kmh 29.21 in989.2 mb 0.00 in0.0 mm 0.00 in0.0 mm 0.00 in0.0 mm
10:25 PM 73.4°F23.0°C 57.8°F14.3°C 58% 11.0 mph SSE17.7 kmh SSE 19.9 mph32.0 kmh 29.20 in988.8 mb 0.00 in0.0 mm 0.00 in0.0 mm 0.00 in0.0 mm
10:30 PM 73.2°F22.9°C 58.0°F14.4°C 59% 13.0 mph SSW20.9 kmh SSW 19.9 mph32.0 kmh 29.21 in989.2 mb 0.00 in0.0 mm 0.00 in0.0 mm 0.00 in0.0 mm
10:35 PM 73.0°F22.8°C 58.0°F14.4°C 59% 12.9 mph SE20.8 kmh SE 24.8 mph39.9 kmh 29.21 in989.2 mb 0.00 in0.0 mm 0.00 in0.0 mm 0.00 in0.0 mm
10:40 PM 72.8°F22.7°C 58.1°F14.5°C 60% 12.2 mph S19.6 kmh S 24.8 mph39.9 kmh 29.21 in989.2 mb 0.00 in0.0 mm 0.00 in0.0 mm 0.00 in0.0 mm
10:45 PM 72.6°F22.6°C 57.9°F14.4°C 60% 7.6 mph SSE12.2 kmh SSE 12.3 mph19.8 kmh 29.21 in989.2 mb 0.00 in0.0 mm 0.00 in0.0 mm 0.00 in0.0 mm
10:50 PM 72.4°F22.4°C 58.2°F14.6°C 61% 11.1 mph SSE17.9 kmh SSE 15.0 mph24.1 kmh 29.21 in989.2 mb 0.00 in0.0 mm 0.00 in0.0 mm 0.00 in0.0 mm
10:55 PM 72.2°F22.3°C 58.3°F14.6°C 62% 11.3 mph SSE18.2 kmh SSE 19.9 mph32.0 kmh 29.21 in989.2 mb 0.00 in0.0 mm 0.00 in0.0 mm 0.00 in0.0 mm
11:00 PM 71.9°F22.2°C 58.5°F14.7°C 63% 12.8 mph SSE20.6 kmh SSE 24.8 mph39.9 kmh 29.21 in989.2 mb 0.00 in0.0 mm 0.00 in0.0 mm 0.00 in0.0 mm
11:05 PM 71.6°F22.0°C 58.5°F14.7°C 63% 11.6 mph S18.7 kmh S 22.4 mph36.0 kmh 29.20 in988.8 mb 0.00 in0.0 mm 0.00 in0.0 mm 0.00 in0.0 mm
11:10 PM 71.2°F21.8°C 58.8°F14.9°C 65% 10.0 mph S16.1 kmh S 17.4 mph28.0 kmh 29.20 in988.8 mb 0.00 in0.0 mm 0.00 in0.0 mm 0.00 in0.0 mm
11:15 PM 70.8°F21.6°C 58.8°F14.9°C 66% 9.8 mph SSE15.8 kmh SSE 19.9 mph32.0 kmh 29.20 in988.8 mb 0.00 in0.0 mm 0.00 in0.0 mm 0.00 in0.0 mm
11:20 PM 70.4°F21.3°C 58.8°F14.9°C 67% 12.8 mph S20.6 kmh S 27.5 mph44.3 kmh 29.20 in988.8 mb 0.00 in0.0 mm 0.00 in0.0 mm 0.00 in0.0 mm
11:25 PM 70.0°F21.1°C 58.9°F14.9°C 68% 10.4 mph SSW16.7 kmh SSW 19.9 mph32.0 kmh 29.19 in988.5 mb 0.00 in0.0 mm 0.00 in0.0 mm 0.00 in0.0 mm
11:30 PM 69.7°F20.9°C 59.0°F15.0°C 69% 16.6 mph SE26.7 kmh SE 27.5 mph44.3 kmh 29.20 in988.8 mb 0.00 in0.0 mm 0.00 in0.0 mm 0.00 in0.0 mm
11:35 PM 69.4°F20.8°C 59.0°F15.0°C 70% 11.7 mph SSE18.8 kmh SSE 27.5 mph44.3 kmh 29.20 in988.8 mb 0.00 in0.0 mm 0.00 in0.0 mm 0.00 in0.0 mm
11:40 PM 69.3°F20.7°C 59.1°F15.1°C 70% 9.4 mph S15.1 kmh S 32.4 mph52.1 kmh 29.21 in989.2 mb 0.00 in0.0 mm 0.00 in0.0 mm 0.00 in0.0 mm
11:45 PM 69.2°F20.7°C 59.2°F15.1°C 70% 17.9 mph S28.8 kmh S 32.4 mph52.1 kmh 29.20 in988.8 mb 0.00 in0.0 mm 0.00 in0.0 mm 0.00 in0.0 mm
11:50 PM 69.0°F20.6°C 59.2°F15.1°C 71% 8.6 mph SSE13.8 kmh SSE 22.4 mph36.0 kmh 29.19 in988.5 mb 0.00 in0.0 mm 0.00 in0.0 mm 0.00 in0.0 mm
11:55 PM 68.9°F20.5°C 59.2°F15.1°C 71% 11.2 mph S18.0 kmh S 22.4 mph36.0 kmh 29.19 in988.5 mb 0.00 in0.0 mm 0.00 in0.0 mm 0.00 in0.0 mm